Time;durP1;ratioP1;P1;durP2;ratioP2;P2;SDS_P1;SDS_P2;PMS_P1;PMS_P2;Temp;Humidity;BMP_temperature;BMP_pressure;BME280_temperature;BME280_humidity;BME280_pressure;Samples;Min_cycle;Max_cycle;Signal;HPM_P1;HPM_P2
2023/01/11 00:00:37;;;;;;;2.25;1.60;;;10.10;98.50;;;;;;5026728;28;20385;-68
2023/01/11 00:03:05;;;;;;;4.00;1.80;;;10.20;98.50;;;;;;5028261;28;20021;-67
2023/01/11 00:05:30;;;;;;;5.38;1.75;;;10.20;98.50;;;;;;5027734;28;20021;-66
2023/01/11 00:07:56;;;;;;;3.88;1.85;;;10.20;98.50;;;;;;5026211;28;20443;-68
2023/01/11 00:10:21;;;;;;;1.75;1.25;;;10.20;98.50;;;;;;5026024;28;20026;-68
2023/01/11 00:12:47;;;;;;;1.90;1.65;;;10.30;98.50;;;;;;5028530;28;20538;-67
2023/01/11 00:15:14;;;;;;;5.03;1.90;;;10.30;98.50;;;;;;5020702;28;20457;-67
2023/01/11 00:17:40;;;;;;;2.30;1.52;;;10.30;98.50;;;;;;5025840;28;20028;-66
2023/01/11 00:20:07;;;;;;;2.70;2.00;;;10.30;98.50;;;;;;5020880;28;20025;-68
2023/01/11 00:22:32;;;;;;;2.83;1.73;;;10.40;98.50;;;;;;5022182;28;20082;-67
2023/01/11 00:24:58;;;;;;;4.22;2.08;;;10.40;98.50;;;;;;5025204;28;20033;-68
2023/01/11 00:27:23;;;;;;;2.53;2.00;;;10.40;98.70;;;;;;5030052;28;20037;-67
2023/01/11 00:29:49;;;;;;;2.80;1.70;;;10.40;98.50;;;;;;5029400;28;20471;-67
2023/01/11 00:32:14;;;;;;;2.28;1.70;;;10.50;98.50;;;;;;5027022;28;20207;-68
2023/01/11 00:34:40;;;;;;;3.35;1.88;;;10.50;98.50;;;;;;5015950;28;20037;-68
2023/01/11 00:37:06;;;;;;;3.28;1.98;;;10.50;98.50;;;;;;5027311;28;20055;-67
2023/01/11 00:39:31;;;;;;;2.20;1.63;;;10.50;98.50;;;;;;5012335;28;20109;-67
2023/01/11 00:50:10;;;;;;;5.75;2.10;;;10.60;98.50;;;;;;5017279;28;20117;-66
2023/01/11 00:52:35;;;;;;;2.08;1.30;;;10.70;98.50;;;;;;5029239;28;20104;-67
2023/01/11 00:55:01;;;;;;;3.25;2.13;;;10.70;98.50;;;;;;5030019;28;20405;-68
2023/01/11 00:57:26;;;;;;;2.95;1.70;;;10.70;98.50;;;;;;5030067;28;20392;-67
2023/01/11 00:59:52;;;;;;;4.47;1.90;;;10.70;98.40;;;;;;5019360;28;20385;-67
2023/01/11 01:02:17;;;;;;;2.47;1.60;;;10.80;98.40;;;;;;5026473;28;20369;-67
2023/01/11 01:04:43;;;;;;;2.60;1.95;;;10.80;98.40;;;;;;5030090;28;20520;-68
2023/01/11 01:07:10;;;;;;;3.13;1.50;;;10.80;98.40;;;;;;5028618;28;20040;-68
2023/01/11 01:09:36;;;;;;;2.63;1.83;;;10.80;98.40;;;;;;5045191;28;20066;-67
2023/01/11 01:12:02;;;;;;;4.22;1.75;;;10.80;98.40;;;;;;5033390;28;20062;-67
2023/01/11 01:14:28;;;;;;;2.53;1.70;;;10.80;98.50;;;;;;5015463;28;20021;-68
2023/01/11 01:16:56;;;;;;;2.40;1.80;;;10.80;98.40;;;;;;5016942;28;20112;-68
2023/01/11 01:19:23;;;;;;;4.47;1.92;;;10.80;98.50;;;;;;5016605;28;20044;-68
2023/01/11 01:21:49;;;;;;;4.20;1.50;;;10.80;98.50;;;;;;5024712;28;20576;-67
2023/01/11 01:24:15;;;;;;;3.50;1.60;;;10.80;98.60;;;;;;5023149;28;20030;-68
2023/01/11 01:26:41;;;;;;;1.80;1.40;;;10.90;98.60;;;;;;5025369;28;20026;-69
2023/01/11 01:29:07;;;;;;;4.60;2.05;;;10.90;98.50;;;;;;5020129;28;20022;-68
2023/01/11 01:31:33;;;;;;;2.33;1.70;;;10.90;98.50;;;;;;5028749;28;20039;-69
2023/01/11 01:33:58;;;;;;;2.83;1.60;;;10.90;98.60;;;;;;5023925;28;20053;-68
2023/01/11 01:36:24;;;;;;;1.20;1.05;;;10.90;98.70;;;;;;5021364;28;20428;-68
2023/01/11 01:38:50;;;;;;;1.75;1.27;;;10.90;98.70;;;;;;5027104;28;20030;-68
2023/01/11 01:41:16;;;;;;;2.40;1.10;;;10.90;98.80;;;;;;5019201;28;20037;-68
2023/01/11 01:43:51;;;;;;;1.80;1.30;;;11.00;98.80;;;;;;5028379;28;20415;-68
2023/01/11 01:46:18;;;;;;;1.67;1.40;;;11.00;98.80;;;;;;5027881;28;20048;-68
2023/01/11 01:48:48;;;;;;;1.92;1.50;;;11.00;98.80;;;;;;5022033;28;20039;-69
2023/01/11 01:51:21;;;;;;;2.00;1.20;;;11.00;98.80;;;;;;5038503;28;20021;-68
2023/01/11 01:53:51;;;;;;;3.05;1.70;;;11.00;98.80;;;;;;5028880;28;20037;-69
2023/01/11 01:56:30;;;;;;;1.65;1.30;;;11.00;98.80;;;;;;5025418;28;20068;-69
2023/01/11 01:59:06;;;;;;;2.58;1.75;;;11.00;98.90;;;;;;5033651;28;20049;-68
2023/01/11 02:01:47;;;;;;;1.92;1.45;;;11.00;99.00;;;;;;5022596;28;20083;-68
2023/01/11 02:04:22;;;;;;;0.90;0.90;;;11.00;99.00;;;;;;5016588;28;20033;-69
2023/01/11 02:06:48;;;;;;;3.22;1.60;;;11.00;99.10;;;;;;5026830;28;20359;-67
2023/01/11 02:09:42;;;;;;;2.83;1.52;;;11.10;99.10;;;;;;5032143;28;20087;-68
2023/01/11 02:12:08;;;;;;;1.40;1.30;;;11.10;99.20;;;;;;5038216;28;20691;-68
2023/01/11 02:14:35;;;;;;;1.20;1.10;;;11.10;99.20;;;;;;5029519;28;20022;-68
2023/01/11 02:17:01;;;;;;;4.20;1.70;;;11.10;99.20;;;;;;5021062;28;20022;-67
2023/01/11 02:19:44;;;;;;;2.15;1.40;;;11.10;99.20;;;;;;5025312;28;20044;-68
2023/01/11 02:22:48;;;;;;;1.63;1.20;;;11.10;99.20;;;;;;5032583;28;20071;-68
2023/01/11 02:25:19;;;;;;;1.48;1.30;;;11.20;99.30;;;;;;5032921;28;20029;-67
2023/01/11 02:28:04;;;;;;;2.88;1.15;;;11.20;99.30;;;;;;5032125;28;20033;-68
2023/01/11 02:30:51;;;;;;;1.05;0.98;;;11.20;99.30;;;;;;5028664;28;20045;-69
2023/01/11 02:33:39;;;;;;;1.02;1.00;;;11.20;99.30;;;;;;5022187;28;20026;-68
2023/01/11 02:36:28;;;;;;;1.50;1.40;;;11.20;99.30;;;;;;5019768;28;20025;-69
2023/01/11 02:39:06;;;;;;;1.23;1.13;;;11.20;99.50;;;;;;5027490;28;20026;-68
2023/01/11 02:47:45;;;;;;;1.20;1.10;;;11.20;99.40;;;;;;5027844;28;20087;-70
2023/01/11 02:51:02;;;;;;;1.85;1.13;;;11.20;99.40;;;;;;5029418;28;20164;-68
2023/01/11 02:53:41;;;;;;;1.50;1.35;;;11.30;99.50;;;;;;5031916;28;20039;-67
2023/01/11 02:56:10;;;;;;;1.65;1.30;;;11.30;99.40;;;;;;5016807;28;20065;-67
2023/01/11 02:58:40;;;;;;;1.70;1.13;;;11.30;99.40;;;;;;5030584;28;20488;-68
2023/01/11 03:01:06;;;;;;;2.28;1.50;;;11.40;99.30;;;;;;5027296;28;20024;-68
2023/01/11 03:03:32;;;;;;;0.80;0.80;;;11.40;99.30;;;;;;5028737;28;20025;-67
2023/01/11 03:06:12;;;;;;;1.00;0.90;;;11.40;99.30;;;;;;5044286;28;20120;-68
2023/01/11 03:08:58;;;;;;;0.80;0.80;;;11.40;99.40;;;;;;5028119;28;20025;-68
2023/01/11 03:14:32;;;;;;;1.40;1.30;;;11.40;99.30;;;;;;5028568;28;20107;-68
2023/01/11 03:17:05;;;;;;;0.90;0.90;;;11.40;99.30;;;;;;5031643;28;20030;-68
2023/01/11 03:19:49;;;;;;;1.20;1.10;;;11.40;99.40;;;;;;5027588;28;20033;-69
2023/01/11 03:22:37;;;;;;;0.85;0.85;;;11.50;99.40;;;;;;5031718;28;20025;-68
2023/01/11 03:25:18;;;;;;;1.13;1.02;;;11.50;99.40;;;;;;5025783;28;20037;-67
2023/01/11 03:27:52;;;;;;;1.40;1.00;;;11.50;99.30;;;;;;5027649;28;20025;-67
2023/01/11 03:30:31;;;;;;;1.17;1.05;;;11.60;99.30;;;;;;5020735;28;20029;-69
2023/01/11 03:33:02;;;;;;;2.45;1.05;;;11.60;99.30;;;;;;5029117;28;20021;-69
2023/01/11 03:35:41;;;;;;;3.60;1.17;;;11.60;99.30;;;;;;5022017;28;20038;-68
2023/01/11 03:38:11;;;;;;;0.90;0.90;;;11.60;99.20;;;;;;5030745;28;20064;-67
2023/01/11 03:40:41;;;;;;;1.20;1.10;;;11.70;99.30;;;;;;5025736;28;20048;-68
2023/01/11 03:43:10;;;;;;;1.10;1.00;;;11.70;99.30;;;;;;5022853;28;20033;-68
2023/01/11 03:45:56;;;;;;;1.30;1.20;;;11.70;99.30;;;;;;5031242;28;20021;-67
2023/01/11 03:48:37;;;;;;;1.00;0.90;;;11.70;99.30;;;;;;5025601;28;20022;-69
2023/01/11 03:51:07;;;;;;;0.85;0.85;;;11.70;99.30;;;;;;5020340;28;20026;-67
2023/01/11 03:53:35;;;;;;;1.15;1.00;;;11.70;99.30;;;;;;5023844;28;20029;-68
2023/01/11 03:56:05;;;;;;;1.00;0.90;;;11.80;99.20;;;;;;5028093;28;20036;-68
2023/01/11 03:58:31;;;;;;;1.23;0.93;;;11.80;99.20;;;;;;5026280;28;20478;-67
2023/01/11 04:00:58;;;;;;;1.10;0.90;;;11.80;99.10;;;;;;5024933;28;20148;-68
2023/01/11 04:03:24;;;;;;;1.10;1.00;;;11.90;99.10;;;;;;5029378;28;20065;-67
2023/01/11 04:05:53;;;;;;;1.02;0.93;;;11.90;99.00;;;;;;5021114;28;20033;-67
2023/01/11 04:08:19;;;;;;;1.00;0.90;;;11.90;99.00;;;;;;5028339;28;20026;-68
2023/01/11 04:10:45;;;;;;;0.77;0.77;;;11.90;99.00;;;;;;5031273;28;20527;-69
2023/01/11 04:13:10;;;;;;;0.70;0.70;;;11.90;98.90;;;;;;5018980;28;20048;-68
2023/01/11 04:15:36;;;;;;;0.95;0.88;;;12.00;98.90;;;;;;5024808;28;20531;-67
2023/01/11 04:18:04;;;;;;;0.80;0.80;;;12.00;98.90;;;;;;5022124;28;20500;-67
2023/01/11 04:20:35;;;;;;;0.80;0.77;;;11.90;98.90;;;;;;5025324;28;20033;-67
2023/01/11 04:23:00;;;;;;;0.73;0.73;;;12.00;99.00;;;;;;5025835;28;20041;-67
2023/01/11 04:25:26;;;;;;;0.80;0.80;;;12.00;98.90;;;;;;5013860;28;20119;-67
2023/01/11 04:27:52;;;;;;;1.35;0.93;;;12.00;98.90;;;;;;5031659;28;20037;-67
2023/01/11 04:30:17;;;;;;;1.52;1.00;;;12.00;98.90;;;;;;5024498;28;20017;-69
2023/01/11 04:32:43;;;;;;;0.80;0.80;;;12.00;99.00;;;;;;5029794;28;20022;-67
2023/01/11 04:35:08;;;;;;;1.42;0.80;;;12.00;99.00;;;;;;5027700;28;20133;-67
2023/01/11 04:37:34;;;;;;;1.00;0.85;;;12.00;98.90;;;;;;5024635;28;20026;-68
2023/01/11 04:39:59;;;;;;;0.98;0.90;;;12.10;98.90;;;;;;5030045;28;20083;-69
2023/01/11 04:42:25;;;;;;;0.80;0.80;;;12.10;99.00;;;;;;5030249;28;20029;-67
2023/01/11 04:44:51;;;;;;;1.25;0.98;;;12.10;99.00;;;;;;5026798;28;20041;-68
2023/01/11 04:47:19;;;;;;;1.30;1.00;;;12.10;98.90;;;;;;5022620;28;20034;-67
2023/01/11 04:49:45;;;;;;;3.45;1.35;;;12.10;98.90;;;;;;5029677;28;20116;-67
2023/01/11 04:52:12;;;;;;;1.33;1.08;;;12.10;98.90;;;;;;5030852;28;20069;-68
2023/01/11 04:54:38;;;;;;;1.65;1.23;;;12.10;98.90;;;;;;5029788;28;20025;-67
2023/01/11 04:57:04;;;;;;;1.40;1.17;;;12.10;99.00;;;;;;5017226;28;20025;-67
2023/01/11 04:59:30;;;;;;;1.05;0.95;;;12.20;99.10;;;;;;5025836;28;20029;-66
2023/01/11 05:01:55;;;;;;;1.45;1.20;;;12.20;99.10;;;;;;5023235;28;20037;-68
2023/01/11 05:04:21;;;;;;;2.97;1.67;;;12.30;99.00;;;;;;5027698;28;20124;-68
2023/01/11 05:06:47;;;;;;;7.32;1.60;;;12.20;99.00;;;;;;5026865;28;20396;-68
2023/01/11 05:09:15;;;;;;;3.47;1.60;;;12.20;99.00;;;;;;5023724;28;20051;-67
2023/01/11 05:11:41;;;;;;;2.92;1.73;;;12.30;99.00;;;;;;5029456;28;20055;-67
2023/01/11 05:14:07;;;;;;;2.17;1.27;;;12.30;99.00;;;;;;5027502;28;20057;-69
2023/01/11 05:16:32;;;;;;;3.78;1.30;;;12.30;98.90;;;;;;5025645;28;20030;-68
2023/01/11 05:19:03;;;;;;;2.50;1.65;;;12.30;98.90;;;;;;5027928;28;20446;-67
2023/01/11 05:21:31;;;;;;;1.80;1.30;;;12.30;98.90;;;;;;5021182;28;20037;-69
2023/01/11 05:23:57;;;;;;;2.13;1.33;;;12.30;98.90;;;;;;5024008;28;20029;-68
2023/01/11 05:26:26;;;;;;;3.80;2.13;;;12.40;98.90;;;;;;5011060;28;20018;-67
2023/01/11 05:28:54;;;;;;;5.30;2.00;;;12.30;98.80;;;;;;5017505;28;20061;-67
2023/01/11 05:31:20;;;;;;;2.83;1.63;;;12.30;98.80;;;;;;5029224;28;20055;-68
2023/01/11 05:33:46;;;;;;;3.75;1.30;;;12.30;98.80;;;;;;5024124;28;20065;-67
2023/01/11 05:36:14;;;;;;;2.95;1.55;;;12.40;98.80;;;;;;5028830;28;20028;-67
2023/01/11 05:38:40;;;;;;;3.03;1.50;;;12.40;98.80;;;;;;5018999;28;20056;-68
2023/01/11 05:41:09;;;;;;;3.10;2.05;;;12.40;98.80;;;;;;5023665;28;20053;-67
2023/01/11 05:46:21;;;;;;;4.25;1.40;;;12.40;98.70;;;;;;5023594;28;20451;-68
2023/01/11 05:48:47;;;;;;;3.47;1.70;;;12.40;98.70;;;;;;5027116;28;20041;-69
2023/01/11 05:51:13;;;;;;;3.72;1.30;;;12.40;98.70;;;;;;5025799;28;20033;-69
2023/01/11 05:53:38;;;;;;;3.50;1.80;;;12.40;98.90;;;;;;5021277;28;20485;-68
2023/01/11 05:56:04;;;;;;;2.42;1.40;;;12.40;98.60;;;;;;5027694;28;20079;-67
2023/01/11 05:58:30;;;;;;;2.50;1.63;;;12.30;98.60;;;;;;5026143;28;20061;-68
2023/01/11 06:00:55;;;;;;;5.65;1.77;;;12.40;98.60;;;;;;5028720;28;20021;-68
2023/01/11 06:03:23;;;;;;;3.75;1.17;;;12.40;98.60;;;;;;5027071;28;20048;-68
2023/01/11 06:05:49;;;;;;;2.00;1.48;;;12.40;98.60;;;;;;5028423;28;20060;-68
2023/01/11 06:08:14;;;;;;;5.28;1.55;;;12.30;98.50;;;;;;5028170;28;20049;-66
2023/01/11 06:10:40;;;;;;;3.08;1.63;;;12.30;98.50;;;;;;5027778;28;20026;-68
2023/01/11 06:13:25;;;;;;;2.78;1.20;;;12.30;98.50;;;;;;5028959;28;20108;-67
2023/01/11 06:16:11;;;;;;;5.20;1.75;;;12.30;98.50;;;;;;5027194;28;20036;-67
2023/01/11 06:18:43;;;;;;;2.42;1.70;;;12.30;98.40;;;;;;5028815;28;20038;-69
2023/01/11 06:21:09;;;;;;;2.97;1.70;;;12.30;98.50;;;;;;5026721;28;20107;-69
2023/01/11 06:23:37;;;;;;;4.82;1.77;;;12.30;98.50;;;;;;5025346;28;20022;-67
2023/01/11 06:26:08;;;;;;;6.72;1.67;;;12.20;98.40;;;;;;5027450;28;20036;-67
2023/01/11 06:28:35;;;;;;;4.00;1.52;;;12.20;98.50;;;;;;5028809;28;20028;-68
2023/01/11 06:31:01;;;;;;;3.58;1.70;;;12.20;98.50;;;;;;5032480;28;20025;-68
2023/01/11 06:33:28;;;;;;;2.90;1.65;;;12.20;98.40;;;;;;5029179;28;20037;-71
2023/01/11 06:35:55;;;;;;;3.67;1.38;;;12.20;98.40;;;;;;5028087;28;20033;-68
2023/01/11 06:38:23;;;;;;;4.28;1.70;;;12.20;98.40;;;;;;5038933;28;20022;-67
2023/01/11 06:41:02;;;;;;;4.82;1.42;;;12.20;98.40;;;;;;5028344;28;20430;-68
2023/01/11 06:43:29;;;;;;;5.63;2.15;;;12.20;98.30;;;;;;5026940;28;20080;-68
2023/01/11 06:45:56;;;;;;;3.95;1.67;;;12.10;98.30;;;;;;5025500;28;20052;-68
2023/01/11 06:48:22;;;;;;;9.40;1.85;;;12.10;98.30;;;;;;5041761;28;20125;-67
2023/01/11 06:50:53;;;;;;;3.08;1.40;;;12.10;98.20;;;;;;5032408;28;20081;-67
2023/01/11 06:53:19;;;;;;;3.20;1.10;;;12.10;98.20;;;;;;5034072;28;20026;-67
2023/01/11 06:55:52;;;;;;;3.53;1.10;;;12.10;98.20;;;;;;5031267;28;20022;-67
2023/01/11 06:58:18;;;;;;;3.10;0.80;;;12.10;98.20;;;;;;5033077;28;20022;-67
2023/01/11 07:00:44;;;;;;;4.35;1.25;;;12.10;98.20;;;;;;5029229;28;20045;-67
2023/01/11 07:03:13;;;;;;;1.90;1.00;;;12.00;98.10;;;;;;5030568;28;20235;-67
2023/01/11 07:05:39;;;;;;;6.32;1.35;;;12.00;98.10;;;;;;5039180;28;20034;-66
2023/01/11 07:08:05;;;;;;;7.13;1.00;;;12.00;98.10;;;;;;5026579;28;20032;-66
2023/01/11 07:10:30;;;;;;;3.75;0.90;;;11.90;98.10;;;;;;5029866;28;20025;-68
2023/01/11 07:12:56;;;;;;;5.43;1.15;;;12.00;98.10;;;;;;5032783;28;20021;-67
2023/01/11 07:15:22;;;;;;;3.85;0.90;;;11.90;98.10;;;;;;5030782;28;20033;-69
2023/01/11 07:17:56;;;;;;;4.88;1.10;;;11.90;98.00;;;;;;5031603;28;20032;-67
2023/01/11 07:20:22;;;;;;;11.15;1.33;;;11.90;97.90;;;;;;5029740;28;20044;-67
2023/01/11 07:22:48;;;;;;;4.93;1.30;;;11.90;97.90;;;;;;5031914;28;20060;-68
2023/01/11 07:25:14;;;;;;;3.15;1.13;;;11.80;97.90;;;;;;5030191;28;20500;-67
2023/01/11 07:27:39;;;;;;;1.63;1.23;;;11.80;97.90;;;;;;5031978;28;20021;-68
2023/01/11 07:30:05;;;;;;;8.40;1.08;;;11.70;97.80;;;;;;5026584;28;20029;-67
2023/01/11 07:32:31;;;;;;;5.90;1.88;;;11.70;97.80;;;;;;5030284;28;20017;-66
2023/01/11 07:34:56;;;;;;;8.00;1.10;;;11.70;97.80;;;;;;5025411;28;20570;-66
2023/01/11 07:37:25;;;;;;;6.60;1.38;;;11.70;97.80;;;;;;5029989;28;20021;-67
2023/01/11 07:39:51;;;;;;;1.42;0.73;;;11.60;97.70;;;;;;5031777;28;20278;-67
2023/01/11 07:45:01;;;;;;;4.32;1.30;;;11.60;97.60;;;;;;5031082;28;20119;-67
2023/01/11 07:47:26;;;;;;;3.70;0.80;;;11.60;97.60;;;;;;5032000;28;20476;-69
2023/01/11 07:49:52;;;;;;;6.15;1.20;;;11.60;97.60;;;;;;5032220;28;20431;-66
2023/01/11 07:52:18;;;;;;;4.55;1.20;;;11.60;97.50;;;;;;5029363;28;20018;-66
2023/01/11 07:54:43;;;;;;;5.13;1.20;;;11.50;97.60;;;;;;5026698;28;20551;-66
2023/01/11 07:57:09;;;;;;;4.20;1.35;;;11.60;97.50;;;;;;5030196;28;20033;-68
2023/01/11 07:59:34;;;;;;;6.57;1.15;;;11.60;97.50;;;;;;5031746;28;20029;-67
2023/01/11 08:02:00;;;;;;;3.20;1.00;;;11.60;97.40;;;;;;5034585;28;20104;-66
2023/01/11 08:04:25;;;;;;;6.72;1.52;;;11.50;97.40;;;;;;5032335;28;20029;-67
2023/01/11 08:06:51;;;;;;;5.68;1.50;;;11.50;97.30;;;;;;5028510;28;20048;-67
2023/01/11 08:09:17;;;;;;;3.13;0.85;;;11.50;97.30;;;;;;5038382;28;20029;-67
2023/01/11 08:14:38;;;;;;;4.78;1.42;;;11.50;97.30;;;;;;5022878;28;20032;-67
2023/01/11 08:17:05;;;;;;;4.65;1.08;;;11.50;97.20;;;;;;5030895;28;20030;-68
2023/01/11 08:19:31;;;;;;;8.68;1.35;;;11.40;97.20;;;;;;5030483;28;20025;-66
2023/01/11 08:21:56;;;;;;;5.75;1.15;;;11.40;97.20;;;;;;5030262;28;20055;-67
2023/01/11 08:24:22;;;;;;;3.58;1.08;;;11.40;97.10;;;;;;5029929;28;20030;-67
2023/01/11 08:26:48;;;;;;;2.45;0.68;;;11.40;97.10;;;;;;5029163;28;20087;-67
2023/01/11 08:29:13;;;;;;;5.40;1.70;;;11.40;97.10;;;;;;5029477;28;20108;-67
2023/01/11 08:31:39;;;;;;;2.80;1.10;;;11.40;97.10;;;;;;5030445;28;20539;-67
2023/01/11 08:34:05;;;;;;;4.43;1.00;;;11.30;97.00;;;;;;5030897;28;20025;-67
2023/01/11 08:36:31;;;;;;;3.33;1.38;;;11.30;97.00;;;;;;5024380;28;20021;-67
2023/01/11 08:38:57;;;;;;;5.63;1.00;;;11.30;97.00;;;;;;5030415;28;20112;-67
2023/01/11 08:41:23;;;;;;;1.42;0.60;;;11.30;97.00;;;;;;5028588;28;20049;-67
2023/01/11 08:43:49;;;;;;;7.22;1.35;;;11.30;97.00;;;;;;5029510;28;20124;-67
2023/01/11 08:46:16;;;;;;;5.40;1.40;;;11.30;96.90;;;;;;5027354;28;20120;-69
2023/01/11 08:48:42;;;;;;;7.93;1.10;;;11.20;96.80;;;;;;5029956;28;20065;-68
2023/01/11 08:51:09;;;;;;;7.03;1.13;;;11.20;96.80;;;;;;5028650;28;20060;-68
2023/01/11 08:53:34;;;;;;;6.07;1.00;;;11.20;96.70;;;;;;5027951;28;20068;-67
2023/01/11 08:56:00;;;;;;;4.65;0.90;;;11.20;96.70;;;;;;5038877;28;20056;-68
2023/01/11 08:58:26;;;;;;;4.45;1.20;;;11.20;96.70;;;;;;5023805;28;20032;-68
2023/01/11 09:00:52;;;;;;;4.40;1.15;;;11.20;96.70;;;;;;5029315;28;20025;-68
2023/01/11 09:03:17;;;;;;;6.97;1.02;;;11.20;96.70;;;;;;5029193;28;20061;-68
2023/01/11 09:05:44;;;;;;;7.25;1.30;;;11.10;96.60;;;;;;5026001;28;20056;-67
2023/01/11 09:08:10;;;;;;;6.22;1.30;;;11.10;96.60;;;;;;5029420;28;20032;-68
2023/01/11 09:10:36;;;;;;;2.97;1.00;;;11.10;96.50;;;;;;5024103;28;20025;-67
2023/01/11 09:13:02;;;;;;;6.18;1.10;;;11.00;96.50;;;;;;5027173;28;20105;-68
2023/01/11 09:15:27;;;;;;;2.92;0.80;;;11.00;96.50;;;;;;5029287;28;20021;-68
2023/01/11 09:17:53;;;;;;;2.53;1.10;;;11.10;96.50;;;;;;5029522;28;20056;-67
2023/01/11 09:20:19;;;;;;;6.38;0.90;;;11.00;96.50;;;;;;5029378;28;20045;-68
2023/01/11 09:22:46;;;;;;;7.25;1.27;;;11.00;96.40;;;;;;5028557;28;20037;-67
2023/01/11 09:25:13;;;;;;;4.00;0.90;;;10.90;96.40;;;;;;5030173;28;20024;-68
2023/01/11 09:27:43;;;;;;;7.20;1.73;;;10.90;96.30;;;;;;5027677;28;20079;-67
2023/01/11 09:30:09;;;;;;;11.25;1.55;;;10.90;96.40;;;;;;5025259;28;20125;-67
2023/01/11 09:32:35;;;;;;;9.05;1.23;;;10.90;96.60;;;;;;5027157;28;20500;-67
2023/01/11 09:35:02;;;;;;;4.10;1.10;;;10.90;96.30;;;;;;5030125;28;20060;-66
2023/01/11 09:37:28;;;;;;;6.30;1.40;;;10.90;96.30;;;;;;5028892;28;20033;-67
2023/01/11 09:39:53;;;;;;;4.55;1.13;;;10.80;96.10;;;;;;5029148;28;20057;-67
2023/01/11 09:42:34;;;;;;;6.15;1.33;;;10.70;95.90;;;;;;5028965;28;20026;-67
2023/01/11 09:45:13;;;;;;;5.28;0.90;;;10.60;95.90;;;;;;5030028;28;20030;-67
2023/01/11 09:47:44;;;;;;;4.88;1.10;;;10.60;96.00;;;;;;5027913;28;20029;-67
2023/01/11 09:50:17;;;;;;;4.93;1.00;;;10.60;96.00;;;;;;5022019;28;20033;-69
2023/01/11 09:52:50;;;;;;;2.80;1.05;;;10.60;96.00;;;;;;5028534;28;20075;-66
2023/01/11 09:55:23;;;;;;;3.38;0.95;;;10.50;96.00;;;;;;5029808;28;20112;-66
2023/01/11 09:57:52;;;;;;;2.55;0.95;;;10.50;96.00;;;;;;5037011;28;20588;-68
2023/01/11 10:00:30;;;;;;;4.65;1.00;;;10.50;96.00;;;;;;5020285;28;20037;-68
2023/01/11 10:03:18;;;;;;;5.53;1.45;;;10.50;96.00;;;;;;5025131;28;20496;-68
2023/01/11 10:06:01;;;;;;;9.82;1.23;;;10.50;96.00;;;;;;5026654;28;20029;-66
2023/01/11 10:08:41;;;;;;;6.45;0.95;;;10.40;95.90;;;;;;5028200;28;20021;-67
2023/01/11 10:11:36;;;;;;;10.18;1.50;;;10.40;95.90;;;;;;5028796;28;20057;-67
2023/01/11 10:14:24;;;;;;;7.63;1.77;;;10.50;96.00;;;;;;5018082;28;20112;-66
2023/01/11 10:17:00;;;;;;;6.88;1.40;;;10.50;95.90;;;;;;5029362;28;20026;-66
2023/01/11 10:19:44;;;;;;;4.55;1.00;;;10.50;95.80;;;;;;5020899;28;20109;-68
2023/01/11 10:22:19;;;;;;;6.38;1.48;;;10.60;95.70;;;;;;5029583;28;20033;-68
2023/01/11 10:24:55;;;;;;;6.35;1.27;;;10.60;95.60;;;;;;5025232;28;20029;-65
2023/01/11 10:27:36;;;;;;;5.20;1.20;;;10.60;95.60;;;;;;5031151;28;20125;-65
2023/01/11 10:42:32;;;;;;;4.30;1.33;;;10.90;95.20;;;;;;5033535;28;20391;-68
2023/01/11 10:45:22;;;;;;;7.50;1.40;;;11.00;95.10;;;;;;5032065;28;20037;-68
2023/01/11 10:48:12;;;;;;;5.93;1.10;;;11.00;95.10;;;;;;5027946;28;20032;-67
2023/01/11 10:50:45;;;;;;;7.90;0.90;;;11.10;95.00;;;;;;5041894;28;20052;-66
2023/01/11 10:53:27;;;;;;;5.47;1.40;;;11.00;94.80;;;;;;5031125;28;20029;-68
2023/01/11 10:56:11;;;;;;;7.30;1.30;;;11.10;94.80;;;;;;5032979;28;20025;-68
2023/01/11 10:59:14;;;;;;;5.78;1.73;;;11.10;94.70;;;;;;5027383;28;20045;-68
2023/01/11 11:01:58;;;;;;;6.55;1.42;;;11.20;94.60;;;;;;5026629;28;20156;-67
2023/01/11 11:04:36;;;;;;;3.80;1.20;;;11.20;94.40;;;;;;5031241;28;20053;-66
2023/01/11 11:07:11;;;;;;;6.32;1.23;;;11.20;94.40;;;;;;5031221;28;20388;-66
2023/01/11 11:09:51;;;;;;;4.45;1.13;;;11.30;94.40;;;;;;5031316;28;20110;-67
2023/01/11 11:12:16;;;;;;;6.10;1.80;;;11.40;94.30;;;;;;5032351;28;20538;-67
2023/01/11 11:15:00;;;;;;;6.50;1.52;;;11.40;94.20;;;;;;5031464;28;20021;-66
2023/01/11 11:17:38;;;;;;;2.75;1.25;;;11.40;94.00;;;;;;5023809;28;20116;-66
2023/01/11 11:20:22;;;;;;;4.32;1.25;;;11.40;93.50;;;;;;5032961;28;20549;-67
2023/01/11 11:22:49;;;;;;;6.97;1.30;;;11.40;93.40;;;;;;5028576;28;20034;-66
2023/01/11 11:25:21;;;;;;;7.40;1.40;;;11.40;93.40;;;;;;5020660;28;20511;-66
2023/01/11 11:27:51;;;;;;;;;;;11.40;93.40;;;;;;5030576;28;20685;-67
2023/01/11 11:30:38;;;;;;;3.35;0.98;;;11.50;93.20;;;;;;5034614;28;19909;-66
2023/01/11 11:33:12;;;;;;;10.55;1.30;;;11.50;93.10;;;;;;5019436;28;20030;-66
2023/01/11 11:35:45;;;;;;;6.68;1.17;;;11.50;93.20;;;;;;5032415;28;20018;-66
2023/01/11 11:38:21;;;;;;;6.20;1.17;;;11.50;93.00;;;;;;5030175;28;20021;-66
2023/01/11 11:40:57;;;;;;;8.68;1.48;;;11.50;92.90;;;;;;5027293;28;20037;-67
2023/01/11 11:43:25;;;;;;;9.90;1.42;;;11.60;92.90;;;;;;5036266;28;20032;-68
2023/01/11 11:46:00;;;;;;;7.97;1.40;;;11.60;92.90;;;;;;5033982;28;20062;-67
2023/01/11 11:48:33;;;;;;;12.23;1.88;;;11.60;92.80;;;;;;5031171;28;20029;-67
2023/01/11 11:51:04;;;;;;;5.18;1.25;;;11.60;92.40;;;;;;5031089;28;20029;-67
2023/01/11 11:53:52;;;;;;;6.50;1.40;;;11.70;92.50;;;;;;5029721;28;20022;-68
2023/01/11 11:56:25;;;;;;;8.10;1.98;;;11.70;92.30;;;;;;5024412;28;20314;-67
2023/01/11 11:58:52;;;;;;;3.15;1.30;;;11.70;92.60;;;;;;5027937;28;20095;-67
2023/01/11 12:01:22;;;;;;;8.77;1.35;;;11.70;92.20;;;;;;5030177;28;20029;-67
2023/01/11 12:03:50;;;;;;;5.22;1.45;;;11.70;92.20;;;;;;5030858;28;20033;-68
2023/01/11 12:06:23;;;;;;;6.63;1.20;;;11.60;91.80;;;;;;5037889;28;20033;-67
2023/01/11 12:08:49;;;;;;;6.35;1.50;;;11.60;92.10;;;;;;5044405;28;20068;-68
2023/01/11 12:11:21;;;;;;;4.93;1.23;;;11.50;91.70;;;;;;5025539;28;20496;-68
2023/01/11 12:14:02;;;;;;;4.32;2.05;;;11.50;91.70;;;;;;5036277;28;20025;-68
2023/01/11 12:16:35;;;;;;;6.57;1.40;;;11.50;91.90;;;;;;5030859;28;20546;-66
2023/01/11 12:19:01;;;;;;;6.32;1.70;;;11.70;91.90;;;;;;5032816;28;20481;-67
2023/01/11 12:21:30;;;;;;;5.45;1.45;;;11.70;91.60;;;;;;5040091;28;20092;-67
2023/01/11 12:24:18;;;;;;;7.40;2.13;;;11.70;91.60;;;;;;5025965;28;20105;-68
2023/01/11 12:27:21;;;;;;;2.65;1.05;;;11.80;91.50;;;;;;5023345;28;20049;-69
2023/01/11 12:30:03;;;;;;;6.88;1.60;;;11.90;91.50;;;;;;5026224;28;20395;-68
2023/01/11 12:33:06;;;;;;;6.03;1.10;;;11.80;91.00;;;;;;5024807;28;20059;-68
2023/01/11 12:35:46;;;;;;;7.25;1.67;;;11.80;91.10;;;;;;5027051;28;20068;-68
2023/01/11 12:38:28;;;;;;;13.98;1.67;;;11.70;90.70;;;;;;5028746;28;20487;-69
2023/01/11 12:41:42;;;;;;;4.38;1.13;;;11.70;91.20;;;;;;5034519;28;20033;-69
2023/01/11 12:44:30;;;;;;;10.98;1.60;;;11.80;91.40;;;;;;5030939;28;20064;-69
2023/01/11 12:47:04;;;;;;;7.28;1.45;;;11.70;90.90;;;;;;5033629;28;20033;-69
2023/01/11 12:49:52;;;;;;;11.55;1.85;;;11.80;90.50;;;;;;5025971;28;20044;-69
2023/01/11 12:52:27;;;;;;;3.58;1.23;;;11.80;89.50;;;;;;5027651;28;20537;-67
2023/01/11 12:55:01;;;;;;;3.55;1.20;;;12.10;89.80;;;;;;5029183;28;20112;-67
2023/01/11 12:57:49;;;;;;;4.22;1.30;;;12.60;88.50;;;;;;5030444;28;20033;-67
2023/01/11 13:00:15;;;;;;;6.55;1.30;;;13.00;85.70;;;;;;5028966;28;20080;-66
2023/01/11 13:03:21;;;;;;;4.32;1.70;;;13.00;85.40;;;;;;5030610;28;20472;-67
2023/01/11 13:05:56;;;;;;;6.45;1.50;;;12.80;85.40;;;;;;5028885;28;20065;-67
2023/01/11 13:08:40;;;;;;;4.53;1.15;;;12.60;86.50;;;;;;5029982;28;20116;-67
2023/01/11 13:11:36;;;;;;;8.15;1.95;;;12.40;86.20;;;;;;5027772;28;20036;-67
2023/01/11 13:14:22;;;;;;;5.65;1.60;;;12.20;85.90;;;;;;5030441;28;20025;-66
2023/01/11 13:17:15;;;;;;;4.63;1.50;;;12.10;85.90;;;;;;5013307;28;20045;-65
2023/01/11 13:19:50;;;;;;;8.32;1.50;;;11.90;86.10;;;;;;5024214;28;20057;-67
2023/01/11 13:22:20;;;;;;;11.15;2.25;;;11.80;87.00;;;;;;5025737;28;20037;-66
2023/01/11 13:24:48;;;;;;;12.50;1.88;;;11.70;85.80;;;;;;5028101;28;20171;-67
2023/01/11 13:27:23;;;;;;;12.63;1.52;;;11.60;85.80;;;;;;5028274;28;20026;-67
2023/01/11 13:29:54;;;;;;;5.43;1.42;;;11.70;86.60;;;;;;5025201;28;20488;-66
2023/01/11 13:32:26;;;;;;;4.03;1.73;;;11.70;86.30;;;;;;5028094;28;20032;-66
2023/01/11 13:35:03;;;;;;;5.97;1.65;;;11.80;86.80;;;;;;5030112;28;20482;-68
2023/01/11 13:37:36;;;;;;;13.82;1.55;;;12.20;86.10;;;;;;5026871;28;20392;-68
2023/01/11 13:40:10;;;;;;;5.28;1.30;;;12.20;85.30;;;;;;5023189;28;20100;-67
2023/01/11 13:42:40;;;;;;;9.35;1.20;;;12.10;85.90;;;;;;5031691;28;20022;-68
2023/01/11 13:45:16;;;;;;;10.32;2.05;;;12.00;86.60;;;;;;5027424;28;20026;-68